This is the latest recevied weather packets stored in our database for station/object DG8SBT-13. If no packets are shown the sender has not sent any weather packets the latest 10 day(s).
| Time | Temp. | Humidity | Pressure | Rain* | Wind** | Luminosity | Snow |
|---|---|---|---|---|---|---|---|
| 1777866023 | 22.22° C | 31% | 1016.3 hPa | - | - | - | - |
| 1777864234 | 22.22° C | 31% | 1016.3 hPa | - | - | - | - |
| 1777862444 | 22.22° C | 30% | 1016.1 hPa | - | - | - | - |
| 1777860654 | 22.22° C | 30% | 1016.2 hPa | - | - | - | - |
| 1777858863 | 22.78° C | 30% | 1016.1 hPa | - | - | - | - |
| 1777857073 | 22.78° C | 29% | 1016.1 hPa | - | - | - | - |
| 1777855281 | 23.33° C | 30% | 1016 hPa | - | - | - | - |
| 1777853490 | 23.33° C | 29% | 1016.2 hPa | - | - | - | - |
| 1777851701 | 23.33° C | 29% | 1016.4 hPa | - | - | - | - |
| 1777849911 | 23.33° C | 28% | 1016.6 hPa | - | - | - | - |
| 1777848120 | 23.33° C | 29% | 1016.7 hPa | - | - | - | - |
| 1777846330 | 23.89° C | 27% | 1016.6 hPa | - | - | - | - |
| 1777844540 | 24.44° C | 29% | 1016.5 hPa | - | - | - | - |
| 1777842749 | 23.89° C | 26% | 1016.4 hPa | - | - | - | - |
| 1777840959 | 24.44° C | 26% | 1016.3 hPa | - | - | - | - |
| 1777839169 | 24.44° C | 26% | 1016.1 hPa | - | - | - | - |
| 1777837379 | 24.44° C | 25% | 1015.8 hPa | - | - | - | - |
| 1777835591 | 25° C | 25% | 1015.5 hPa | - | - | - | - |
| 1777833801 | 25.56° C | 25% | 1015.2 hPa | - | - | - | - |
| 1777832013 | 26.67° C | 30% | 1014.6 hPa | - | - | - | - |
| 1777830223 | 26.67° C | 29% | 1014.4 hPa | - | - | - | - |
| 1777828434 | 27.22° C | 28% | 1014.1 hPa | - | - | - | - |
| 1777826644 | 27.78° C | 28% | 1013.9 hPa | - | - | - | - |
| 1777824853 | 27.22° C | 29% | 1013.7 hPa | - | - | - | - |
| 1777823062 | 27.22° C | 28% | 1013.7 hPa | - | - | - | - |
* Rain since midnight (hover to see other rain measurements)
** Current wind speed in m/s (hover to see current wind gust speed)